sensor_id;sensor_type;location;lat;lon;timestamp;temperature;humidity
48994;DHT22;34804;49.214;12.276;2023-04-01T00:00:33;7.90;86.60
48994;DHT22;34804;49.214;12.276;2023-04-01T00:03:00;7.90;86.40
48994;DHT22;34804;49.214;12.276;2023-04-01T00:05:27;7.90;86.00
48994;DHT22;34804;49.214;12.276;2023-04-01T00:07:54;7.90;86.00
48994;DHT22;34804;49.214;12.276;2023-04-01T00:10:21;7.90;86.40
48994;DHT22;34804;49.214;12.276;2023-04-01T00:12:48;7.90;86.40
48994;DHT22;34804;49.214;12.276;2023-04-01T00:15:15;7.90;86.30
48994;DHT22;34804;49.214;12.276;2023-04-01T00:17:42;7.80;86.50
48994;DHT22;34804;49.214;12.276;2023-04-01T00:20:09;7.80;85.90
48994;DHT22;34804;49.214;12.276;2023-04-01T00:22:36;7.90;85.80
48994;DHT22;34804;49.214;12.276;2023-04-01T00:25:04;7.90;86.00
48994;DHT22;34804;49.214;12.276;2023-04-01T00:27:31;7.80;86.30
48994;DHT22;34804;49.214;12.276;2023-04-01T00:29:57;7.80;86.50
48994;DHT22;34804;49.214;12.276;2023-04-01T00:32:24;7.80;86.30
48994;DHT22;34804;49.214;12.276;2023-04-01T00:34:52;7.80;86.20
48994;DHT22;34804;49.214;12.276;2023-04-01T00:37:20;7.90;85.90
48994;DHT22;34804;49.214;12.276;2023-04-01T00:39:47;7.90;86.20
48994;DHT22;34804;49.214;12.276;2023-04-01T00:42:14;7.90;86.10
48994;DHT22;34804;49.214;12.276;2023-04-01T00:44:41;7.90;85.80
48994;DHT22;34804;49.214;12.276;2023-04-01T00:47:08;8.00;85.30
48994;DHT22;34804;49.214;12.276;2023-04-01T00:49:39;8.10;85.00
48994;DHT22;34804;49.214;12.276;2023-04-01T00:52:08;8.10;84.90
48994;DHT22;34804;49.214;12.276;2023-04-01T00:54:38;8.20;84.50
48994;DHT22;34804;49.214;12.276;2023-04-01T00:57:10;8.20;84.60
48994;DHT22;34804;49.214;12.276;2023-04-01T00:59:48;8.20;84.30
48994;DHT22;34804;49.214;12.276;2023-04-01T01:02:16;8.20;84.30
48994;DHT22;34804;49.214;12.276;2023-04-01T01:04:44;8.30;84.30
48994;DHT22;34804;49.214;12.276;2023-04-01T01:07:35;8.10;84.50
48994;DHT22;34804;49.214;12.276;2023-04-01T01:10:15;8.20;84.90
48994;DHT22;34804;49.214;12.276;2023-04-01T01:13:02;8.20;84.20
48994;DHT22;34804;49.214;12.276;2023-04-01T01:15:49;8.10;84.90
48994;DHT22;34804;49.214;12.276;2023-04-01T01:26:57;7.90;85.40
48994;DHT22;34804;49.214;12.276;2023-04-01T01:32:20;8.10;84.90
48994;DHT22;34804;49.214;12.276;2023-04-01T01:35:13;8.10;85.00
48994;DHT22;34804;49.214;12.276;2023-04-01T01:37:45;8.00;84.90
48994;DHT22;34804;49.214;12.276;2023-04-01T01:40:15;8.00;84.60
48994;DHT22;34804;49.214;12.276;2023-04-01T01:42:47;8.00;84.60
48994;DHT22;34804;49.214;12.276;2023-04-01T01:45:17;8.00;84.70
48994;DHT22;34804;49.214;12.276;2023-04-01T01:47:45;8.00;85.20
48994;DHT22;34804;49.214;12.276;2023-04-01T01:50:17;7.90;84.50
48994;DHT22;34804;49.214;12.276;2023-04-01T01:52:44;8.00;84.40
48994;DHT22;34804;49.214;12.276;2023-04-01T01:58:01;8.00;84.90
48994;DHT22;34804;49.214;12.276;2023-04-01T02:00:30;7.90;84.30
48994;DHT22;34804;49.214;12.276;2023-04-01T02:02:58;8.00;84.80
48994;DHT22;34804;49.214;12.276;2023-04-01T02:05:26;8.00;85.10
48994;DHT22;34804;49.214;12.276;2023-04-01T02:08:02;7.90;84.60
48994;DHT22;34804;49.214;12.276;2023-04-01T02:10:31;7.90;85.00
48994;DHT22;34804;49.214;12.276;2023-04-01T02:13:05;7.90;84.40
48994;DHT22;34804;49.214;12.276;2023-04-01T02:15:37;7.90;84.70
48994;DHT22;34804;49.214;12.276;2023-04-01T02:18:07;8.00;84.30
48994;DHT22;34804;49.214;12.276;2023-04-01T02:20:35;8.00;83.70
48994;DHT22;34804;49.214;12.276;2023-04-01T02:23:03;8.00;84.40
48994;DHT22;34804;49.214;12.276;2023-04-01T02:25:35;8.00;84.60
48994;DHT22;34804;49.214;12.276;2023-04-01T02:28:06;7.90;85.10
48994;DHT22;34804;49.214;12.276;2023-04-01T02:30:35;7.90;84.40
48994;DHT22;34804;49.214;12.276;2023-04-01T02:33:04;7.90;84.90
48994;DHT22;34804;49.214;12.276;2023-04-01T02:35:34;7.90;85.20
48994;DHT22;34804;49.214;12.276;2023-04-01T02:38:02;7.80;85.10
48994;DHT22;34804;49.214;12.276;2023-04-01T02:40:29;7.80;85.00
48994;DHT22;34804;49.214;12.276;2023-04-01T02:42:56;7.80;85.00
48994;DHT22;34804;49.214;12.276;2023-04-01T02:45:22;7.80;85.40
48994;DHT22;34804;49.214;12.276;2023-04-01T02:47:50;7.90;84.90
48994;DHT22;34804;49.214;12.276;2023-04-01T02:50:17;7.80;85.10
48994;DHT22;34804;49.214;12.276;2023-04-01T02:52:43;7.90;84.90
48994;DHT22;34804;49.214;12.276;2023-04-01T02:55:10;7.90;84.80
48994;DHT22;34804;49.214;12.276;2023-04-01T02:57:37;7.90;85.10
48994;DHT22;34804;49.214;12.276;2023-04-01T03:00:04;7.90;84.80
48994;DHT22;34804;49.214;12.276;2023-04-01T03:02:38;7.90;84.80
48994;DHT22;34804;49.214;12.276;2023-04-01T03:05:06;7.90;85.20
48994;DHT22;34804;49.214;12.276;2023-04-01T03:07:33;7.90;85.10
48994;DHT22;34804;49.214;12.276;2023-04-01T03:10:00;7.90;84.80
48994;DHT22;34804;49.214;12.276;2023-04-01T03:12:27;7.90;85.30
48994;DHT22;34804;49.214;12.276;2023-04-01T03:14:54;7.90;85.20
48994;DHT22;34804;49.214;12.276;2023-04-01T03:17:21;7.90;85.30
48994;DHT22;34804;49.214;12.276;2023-04-01T03:19:48;7.80;85.20
48994;DHT22;34804;49.214;12.276;2023-04-01T03:22:15;7.80;85.20
48994;DHT22;34804;49.214;12.276;2023-04-01T03:24:41;7.80;85.50
48994;DHT22;34804;49.214;12.276;2023-04-01T03:27:08;7.90;84.70
48994;DHT22;34804;49.214;12.276;2023-04-01T03:29:35;7.90;85.10
48994;DHT22;34804;49.214;12.276;2023-04-01T03:32:02;7.90;85.60
48994;DHT22;34804;49.214;12.276;2023-04-01T03:34:28;7.80;85.60
48994;DHT22;34804;49.214;12.276;2023-04-01T03:36:55;7.80;85.80
48994;DHT22;34804;49.214;12.276;2023-04-01T03:39:22;7.70;86.20
48994;DHT22;34804;49.214;12.276;2023-04-01T03:41:49;7.80;85.20
48994;DHT22;34804;49.214;12.276;2023-04-01T03:44:16;7.90;84.70
48994;DHT22;34804;49.214;12.276;2023-04-01T03:46:43;7.90;84.40
48994;DHT22;34804;49.214;12.276;2023-04-01T03:49:10;7.90;84.60
48994;DHT22;34804;49.214;12.276;2023-04-01T03:51:42;7.90;84.60
48994;DHT22;34804;49.214;12.276;2023-04-01T03:54:10;7.90;84.60
48994;DHT22;34804;49.214;12.276;2023-04-01T03:56:37;7.90;85.00
48994;DHT22;34804;49.214;12.276;2023-04-01T03:59:06;7.90;84.90
48994;DHT22;34804;49.214;12.276;2023-04-01T04:01:33;7.90;85.70
48994;DHT22;34804;49.214;12.276;2023-04-01T04:04:00;7.80;85.10
48994;DHT22;34804;49.214;12.276;2023-04-01T04:06:27;7.90;85.10
48994;DHT22;34804;49.214;12.276;2023-04-01T04:08:54;7.90;84.70
48994;DHT22;34804;49.214;12.276;2023-04-01T04:11:22;7.90;85.50
48994;DHT22;34804;49.214;12.276;2023-04-01T04:13:49;7.90;85.10
48994;DHT22;34804;49.214;12.276;2023-04-01T04:16:17;7.90;85.00
48994;DHT22;34804;49.214;12.276;2023-04-01T04:18:44;7.90;85.30
48994;DHT22;34804;49.214;12.276;2023-04-01T04:21:14;7.80;85.50
48994;DHT22;34804;49.214;12.276;2023-04-01T04:23:42;7.80;85.00
48994;DHT22;34804;49.214;12.276;2023-04-01T04:26:11;7.90;85.40
48994;DHT22;34804;49.214;12.276;2023-04-01T04:28:39;7.80;85.20
48994;DHT22;34804;49.214;12.276;2023-04-01T04:31:06;7.80;85.40
48994;DHT22;34804;49.214;12.276;2023-04-01T04:33:34;7.80;85.90
48994;DHT22;34804;49.214;12.276;2023-04-01T04:36:02;7.80;85.60
48994;DHT22;34804;49.214;12.276;2023-04-01T04:38:30;7.80;85.60
48994;DHT22;34804;49.214;12.276;2023-04-01T04:40:57;7.70;85.60
48994;DHT22;34804;49.214;12.276;2023-04-01T04:43:24;7.70;85.70
48994;DHT22;34804;49.214;12.276;2023-04-01T04:45:50;7.80;85.20
48994;DHT22;34804;49.214;12.276;2023-04-01T04:48:18;7.80;85.00
48994;DHT22;34804;49.214;12.276;2023-04-01T04:50:50;7.80;85.00
48994;DHT22;34804;49.214;12.276;2023-04-01T04:53:18;7.80;85.30
48994;DHT22;34804;49.214;12.276;2023-04-01T04:55:47;7.80;84.90
48994;DHT22;34804;49.214;12.276;2023-04-01T04:58:14;7.80;85.40
48994;DHT22;34804;49.214;12.276;2023-04-01T05:00:42;7.80;85.50
48994;DHT22;34804;49.214;12.276;2023-04-01T05:03:09;7.80;85.30
48994;DHT22;34804;49.214;12.276;2023-04-01T05:05:37;7.80;84.80
48994;DHT22;34804;49.214;12.276;2023-04-01T05:08:04;7.80;85.10
48994;DHT22;34804;49.214;12.276;2023-04-01T05:10:31;7.80;85.30
48994;DHT22;34804;49.214;12.276;2023-04-01T05:12:58;7.70;85.50
48994;DHT22;34804;49.214;12.276;2023-04-01T05:15:25;7.70;85.20
48994;DHT22;34804;49.214;12.276;2023-04-01T05:17:52;7.70;85.20
48994;DHT22;34804;49.214;12.276;2023-04-01T05:20:18;7.80;85.10
48994;DHT22;34804;49.214;12.276;2023-04-01T05:22:45;7.80;85.20
48994;DHT22;34804;49.214;12.276;2023-04-01T05:25:12;7.80;85.80
48994;DHT22;34804;49.214;12.276;2023-04-01T05:27:39;7.80;85.20
48994;DHT22;34804;49.214;12.276;2023-04-01T05:30:06;7.80;84.50
48994;DHT22;34804;49.214;12.276;2023-04-01T05:32:33;7.90;84.80
48994;DHT22;34804;49.214;12.276;2023-04-01T05:35:00;7.90;84.40
48994;DHT22;34804;49.214;12.276;2023-04-01T05:37:27;7.90;84.70
48994;DHT22;34804;49.214;12.276;2023-04-01T05:39:54;7.90;84.50
48994;DHT22;34804;49.214;12.276;2023-04-01T05:42:21;7.90;84.80
48994;DHT22;34804;49.214;12.276;2023-04-01T05:44:48;7.90;84.90
48994;DHT22;34804;49.214;12.276;2023-04-01T05:47:15;8.00;85.30
48994;DHT22;34804;49.214;12.276;2023-04-01T05:49:42;8.00;85.30
48994;DHT22;34804;49.214;12.276;2023-04-01T05:52:09;7.90;84.80
48994;DHT22;34804;49.214;12.276;2023-04-01T05:54:35;8.00;85.20
48994;DHT22;34804;49.214;12.276;2023-04-01T05:57:02;8.00;84.90
48994;DHT22;34804;49.214;12.276;2023-04-01T05:59:29;7.90;84.60
48994;DHT22;34804;49.214;12.276;2023-04-01T06:01:57;8.00;84.70
48994;DHT22;34804;49.214;12.276;2023-04-01T06:04:31;8.00;84.80
48994;DHT22;34804;49.214;12.276;2023-04-01T06:06:59;7.90;84.90
48994;DHT22;34804;49.214;12.276;2023-04-01T06:09:27;8.00;85.00
48994;DHT22;34804;49.214;12.276;2023-04-01T06:23:27;8.20;85.00
48994;DHT22;34804;49.214;12.276;2023-04-01T06:29:12;8.20;85.10
48994;DHT22;34804;49.214;12.276;2023-04-01T06:37:15;8.30;84.90
48994;DHT22;34804;49.214;12.276;2023-04-01T06:39:53;8.30;83.60
48994;DHT22;34804;49.214;12.276;2023-04-01T06:48:30;8.30;82.60
48994;DHT22;34804;49.214;12.276;2023-04-01T06:56:28;8.50;82.90
48994;DHT22;34804;49.214;12.276;2023-04-01T06:59:17;8.50;82.40
48994;DHT22;34804;49.214;12.276;2023-04-01T07:01:52;8.60;83.40
48994;DHT22;34804;49.214;12.276;2023-04-01T07:04:21;8.60;82.80
48994;DHT22;34804;49.214;12.276;2023-04-01T07:06:55;8.60;81.70
48994;DHT22;34804;49.214;12.276;2023-04-01T07:09:31;8.70;83.10
48994;DHT22;34804;49.214;12.276;2023-04-01T07:12:02;8.70;81.90
48994;DHT22;34804;49.214;12.276;2023-04-01T07:14:39;8.80;82.70
48994;DHT22;34804;49.214;12.276;2023-04-01T07:17:27;8.90;82.00
48994;DHT22;34804;49.214;12.276;2023-04-01T07:22:38;8.80;81.40
48994;DHT22;34804;49.214;12.276;2023-04-01T07:25:13;8.80;80.90
48994;DHT22;34804;49.214;12.276;2023-04-01T07:27:45;8.80;82.40
48994;DHT22;34804;49.214;12.276;2023-04-01T07:30:20;8.80;79.60
48994;DHT22;34804;49.214;12.276;2023-04-01T07:33:04;8.90;80.70
48994;DHT22;34804;49.214;12.276;2023-04-01T07:35:59;8.80;79.50
48994;DHT22;34804;49.214;12.276;2023-04-01T07:49:31;9.10;80.10
48994;DHT22;34804;49.214;12.276;2023-04-01T07:52:23;9.20;80.80
48994;DHT22;34804;49.214;12.276;2023-04-01T07:55:09;9.30;80.70
48994;DHT22;34804;49.214;12.276;2023-04-01T08:00:30;9.40;79.20
48994;DHT22;34804;49.214;12.276;2023-04-01T08:03:07;9.30;78.90
48994;DHT22;34804;49.214;12.276;2023-04-01T08:05:53;9.40;79.00
48994;DHT22;34804;49.214;12.276;2023-04-01T08:08:49;9.50;77.20
48994;DHT22;34804;49.214;12.276;2023-04-01T08:11:25;9.70;79.90
48994;DHT22;34804;49.214;12.276;2023-04-01T08:14:21;9.80;77.70
48994;DHT22;34804;49.214;12.276;2023-04-01T08:17:08;9.80;76.60
48994;DHT22;34804;49.214;12.276;2023-04-01T08:20:39;9.80;77.60
48994;DHT22;34804;49.214;12.276;2023-04-01T08:23:07;9.80;77.10
48994;DHT22;34804;49.214;12.276;2023-04-01T08:25:49;9.90;76.30
48994;DHT22;34804;49.214;12.276;2023-04-01T08:33:38;10.30;75.20
48994;DHT22;34804;49.214;12.276;2023-04-01T08:36:09;10.30;77.30
48994;DHT22;34804;49.214;12.276;2023-04-01T08:41:47;10.40;76.10
48994;DHT22;34804;49.214;12.276;2023-04-01T08:53:03;10.30;74.60
48994;DHT22;34804;49.214;12.276;2023-04-01T08:55:51;10.40;74.70
48994;DHT22;34804;49.214;12.276;2023-04-01T08:58:38;10.50;72.70
48994;DHT22;34804;49.214;12.276;2023-04-01T09:06:49;11.10;74.40
48994;DHT22;34804;49.214;12.276;2023-04-01T09:17:53;11.20;72.40
48994;DHT22;34804;49.214;12.276;2023-04-01T09:20:38;11.20;71.90
48994;DHT22;34804;49.214;12.276;2023-04-01T09:39:42;10.60;72.10
48994;DHT22;34804;49.214;12.276;2023-04-01T09:42:41;10.60;73.40
48994;DHT22;34804;49.214;12.276;2023-04-01T09:45:34;10.50;73.70
48994;DHT22;34804;49.214;12.276;2023-04-01T09:48:15;10.50;72.90
48994;DHT22;34804;49.214;12.276;2023-04-01T09:53:46;10.40;75.30
48994;DHT22;34804;49.214;12.276;2023-04-01T09:59:50;10.40;73.70
48994;DHT22;34804;49.214;12.276;2023-04-01T10:02:44;10.40;74.80
48994;DHT22;34804;49.214;12.276;2023-04-01T10:13:37;10.30;75.30
48994;DHT22;34804;49.214;12.276;2023-04-01T10:21:44;10.30;76.00
48994;DHT22;34804;49.214;12.276;2023-04-01T10:39:19;10.20;75.80
48994;DHT22;34804;49.214;12.276;2023-04-01T10:42:10;10.30;77.70
48994;DHT22;34804;49.214;12.276;2023-04-01T10:45:10;10.20;79.00
48994;DHT22;34804;49.214;12.276;2023-04-01T10:48:18;10.20;77.10
48994;DHT22;34804;49.214;12.276;2023-04-01T10:51:14;10.30;75.10
48994;DHT22;34804;49.214;12.276;2023-04-01T10:54:09;10.40;76.30
48994;DHT22;34804;49.214;12.276;2023-04-01T10:56:54;10.60;75.20
48994;DHT22;34804;49.214;12.276;2023-04-01T10:59:33;10.70;74.50
48994;DHT22;34804;49.214;12.276;2023-04-01T11:17:10;11.50;74.70
48994;DHT22;34804;49.214;12.276;2023-04-01T11:26:03;11.10;74.40
48994;DHT22;34804;49.214;12.276;2023-04-01T11:28:40;11.20;73.10
48994;DHT22;34804;49.214;12.276;2023-04-01T11:34:03;11.30;72.60
48994;DHT22;34804;49.214;12.276;2023-04-01T11:36:47;11.40;73.50
48994;DHT22;34804;49.214;12.276;2023-04-01T11:39:37;11.40;74.80
48994;DHT22;34804;49.214;12.276;2023-04-01T11:42:49;11.40;74.90
48994;DHT22;34804;49.214;12.276;2023-04-01T11:48:16;10.80;77.20
48994;DHT22;34804;49.214;12.276;2023-04-01T11:51:08;10.60;77.50
48994;DHT22;34804;49.214;12.276;2023-04-01T11:53:44;10.50;79.70
48994;DHT22;34804;49.214;12.276;2023-04-01T12:02:16;10.50;79.60
48994;DHT22;34804;49.214;12.276;2023-04-01T12:16:08;9.90;82.30
48994;DHT22;34804;49.214;12.276;2023-04-01T12:18:48;9.90;84.40
48994;DHT22;34804;49.214;12.276;2023-04-01T12:24:02;9.60;83.30
48994;DHT22;34804;49.214;12.276;2023-04-01T12:26:41;9.60;84.10
48994;DHT22;34804;49.214;12.276;2023-04-01T12:32:20;9.60;86.10
48994;DHT22;34804;49.214;12.276;2023-04-01T12:35:15;9.70;85.70
48994;DHT22;34804;49.214;12.276;2023-04-01T12:38:14;9.90;84.50
48994;DHT22;34804;49.214;12.276;2023-04-01T12:43:54;9.70;84.70
48994;DHT22;34804;49.214;12.276;2023-04-01T12:52:35;9.30;85.10
48994;DHT22;34804;49.214;12.276;2023-04-01T13:09:35;9.40;85.90
48994;DHT22;34804;49.214;12.276;2023-04-01T13:17:58;9.40;86.70
48994;DHT22;34804;49.214;12.276;2023-04-01T13:20:59;9.40;85.40
48994;DHT22;34804;49.214;12.276;2023-04-01T13:26:35;9.30;87.30
48994;DHT22;34804;49.214;12.276;2023-04-01T13:40:32;9.80;84.60
48994;DHT22;34804;49.214;12.276;2023-04-01T13:43:14;9.70;84.30
48994;DHT22;34804;49.214;12.276;2023-04-01T13:57:29;9.00;87.30
48994;DHT22;34804;49.214;12.276;2023-04-01T14:00:36;8.90;87.00
48994;DHT22;34804;49.214;12.276;2023-04-01T14:03:38;8.90;86.50
48994;DHT22;34804;49.214;12.276;2023-04-01T14:06:27;8.90;87.00
48994;DHT22;34804;49.214;12.276;2023-04-01T14:23:29;9.40;85.70
48994;DHT22;34804;49.214;12.276;2023-04-01T14:31:48;9.40;86.50
48994;DHT22;34804;49.214;12.276;2023-04-01T14:48:32;9.10;87.50
48994;DHT22;34804;49.214;12.276;2023-04-01T14:51:21;9.20;88.00
48994;DHT22;34804;49.214;12.276;2023-04-01T14:56:49;9.10;87.70
48994;DHT22;34804;49.214;12.276;2023-04-01T14:59:28;9.10;87.90
48994;DHT22;34804;49.214;12.276;2023-04-01T15:02:14;9.10;88.30
48994;DHT22;34804;49.214;12.276;2023-04-01T15:04:54;9.10;88.10
48994;DHT22;34804;49.214;12.276;2023-04-01T15:16:41;9.00;88.40
48994;DHT22;34804;49.214;12.276;2023-04-01T15:19:37;8.90;88.70
48994;DHT22;34804;49.214;12.276;2023-04-01T15:27:55;9.00;89.80
48994;DHT22;34804;49.214;12.276;2023-04-01T15:33:17;9.10;89.60
48994;DHT22;34804;49.214;12.276;2023-04-01T15:38:48;9.20;89.90
48994;DHT22;34804;49.214;12.276;2023-04-01T15:41:27;9.30;89.50
48994;DHT22;34804;49.214;12.276;2023-04-01T15:44:01;9.30;89.50
48994;DHT22;34804;49.214;12.276;2023-04-01T15:46:49;9.30;88.70
48994;DHT22;34804;49.214;12.276;2023-04-01T15:49:38;9.20;88.80
48994;DHT22;34804;49.214;12.276;2023-04-01T15:52:38;9.10;89.60
48994;DHT22;34804;49.214;12.276;2023-04-01T15:55:16;9.00;89.50
48994;DHT22;34804;49.214;12.276;2023-04-01T16:01:25;8.90;88.90
48994;DHT22;34804;49.214;12.276;2023-04-01T16:04:17;8.90;89.70
48994;DHT22;34804;49.214;12.276;2023-04-01T16:12:24;8.80;89.60
48994;DHT22;34804;49.214;12.276;2023-04-01T16:15:25;8.80;89.60
48994;DHT22;34804;49.214;12.276;2023-04-01T16:18:04;8.80;89.50
48994;DHT22;34804;49.214;12.276;2023-04-01T16:23:46;8.80;89.40
48994;DHT22;34804;49.214;12.276;2023-04-01T16:26:43;8.80;89.20
48994;DHT22;34804;49.214;12.276;2023-04-01T16:29:19;8.80;88.90
48994;DHT22;34804;49.214;12.276;2023-04-01T16:31:55;8.80;88.90
48994;DHT22;34804;49.214;12.276;2023-04-01T16:34:31;8.80;89.10
48994;DHT22;34804;49.214;12.276;2023-04-01T16:37:15;8.90;88.90
48994;DHT22;34804;49.214;12.276;2023-04-01T16:40:09;8.80;89.00
48994;DHT22;34804;49.214;12.276;2023-04-01T16:42:53;8.80;89.30
48994;DHT22;34804;49.214;12.276;2023-04-01T16:48:01;8.80;89.90
48994;DHT22;34804;49.214;12.276;2023-04-01T16:55:54;8.80;89.90
48994;DHT22;34804;49.214;12.276;2023-04-01T16:58:37;8.80;89.90
48994;DHT22;34804;49.214;12.276;2023-04-01T17:01:31;8.80;89.90
48994;DHT22;34804;49.214;12.276;2023-04-01T17:04:19;8.80;89.60
48994;DHT22;34804;49.214;12.276;2023-04-01T17:07:00;8.70;89.80
48994;DHT22;34804;49.214;12.276;2023-04-01T17:09:51;8.70;89.80
48994;DHT22;34804;49.214;12.276;2023-04-01T17:20:30;8.70;90.50
48994;DHT22;34804;49.214;12.276;2023-04-01T17:23:04;8.60;90.90
48994;DHT22;34804;49.214;12.276;2023-04-01T17:28:36;8.70;90.40
48994;DHT22;34804;49.214;12.276;2023-04-01T17:37:07;8.70;89.80
48994;DHT22;34804;49.214;12.276;2023-04-01T17:39:44;8.70;88.90
48994;DHT22;34804;49.214;12.276;2023-04-01T17:53:45;8.70;88.70
48994;DHT22;34804;49.214;12.276;2023-04-01T18:01:54;8.80;88.70
48994;DHT22;34804;49.214;12.276;2023-04-01T18:04:52;8.70;88.50
48994;DHT22;34804;49.214;12.276;2023-04-01T18:07:52;8.80;88.00
48994;DHT22;34804;49.214;12.276;2023-04-01T18:13:18;8.70;87.30
48994;DHT22;34804;49.214;12.276;2023-04-01T18:21:16;8.70;87.30
48994;DHT22;34804;49.214;12.276;2023-04-01T18:23:59;8.70;88.00
48994;DHT22;34804;49.214;12.276;2023-04-01T18:26:31;8.70;88.00
48994;DHT22;34804;49.214;12.276;2023-04-01T18:31:52;8.70;87.30
48994;DHT22;34804;49.214;12.276;2023-04-01T18:43:30;8.70;87.00
48994;DHT22;34804;49.214;12.276;2023-04-01T18:45:36;8.60;87.00
48994;DHT22;34804;49.214;12.276;2023-04-01T18:48:33;8.60;87.30
48994;DHT22;34804;49.214;12.276;2023-04-01T18:51:16;8.60;87.30
48994;DHT22;34804;49.214;12.276;2023-04-01T18:53:57;8.50;86.80
48994;DHT22;34804;49.214;12.276;2023-04-01T18:56:32;8.60;87.00
48994;DHT22;34804;49.214;12.276;2023-04-01T18:59:25;8.50;87.30
48994;DHT22;34804;49.214;12.276;2023-04-01T19:02:02;8.40;87.30
48994;DHT22;34804;49.214;12.276;2023-04-01T19:04:37;8.50;87.10
48994;DHT22;34804;49.214;12.276;2023-04-01T19:18:33;8.50;86.90
48994;DHT22;34804;49.214;12.276;2023-04-01T19:24:07;8.40;87.50
48994;DHT22;34804;49.214;12.276;2023-04-01T19:26:48;8.50;87.00
48994;DHT22;34804;49.214;12.276;2023-04-01T19:32:37;8.50;87.00
48994;DHT22;34804;49.214;12.276;2023-04-01T19:43:38;8.60;86.70
48994;DHT22;34804;49.214;12.276;2023-04-01T19:46:25;8.50;86.50
48994;DHT22;34804;49.214;12.276;2023-04-01T19:56:54;8.50;86.80
48994;DHT22;34804;49.214;12.276;2023-04-01T20:04:42;8.50;87.20
48994;DHT22;34804;49.214;12.276;2023-04-01T20:07:16;8.40;87.10
48994;DHT22;34804;49.214;12.276;2023-04-01T20:10:09;8.50;87.00
48994;DHT22;34804;49.214;12.276;2023-04-01T20:15:35;8.40;87.40
48994;DHT22;34804;49.214;12.276;2023-04-01T20:18:12;8.40;87.20
48994;DHT22;34804;49.214;12.276;2023-04-01T20:20:41;8.40;86.80
48994;DHT22;34804;49.214;12.276;2023-04-01T20:23:41;8.50;87.10
48994;DHT22;34804;49.214;12.276;2023-04-01T20:26:12;8.40;87.40
48994;DHT22;34804;49.214;12.276;2023-04-01T20:31:47;8.40;87.60
48994;DHT22;34804;49.214;12.276;2023-04-01T20:34:59;8.40;87.90
48994;DHT22;34804;49.214;12.276;2023-04-01T20:38:11;8.40;87.80
48994;DHT22;34804;49.214;12.276;2023-04-01T20:40:49;8.40;87.80
48994;DHT22;34804;49.214;12.276;2023-04-01T20:43:27;8.40;88.10
48994;DHT22;34804;49.214;12.276;2023-04-01T20:46:00;8.40;87.90
48994;DHT22;34804;49.214;12.276;2023-04-01T20:51:05;8.40;87.30
48994;DHT22;34804;49.214;12.276;2023-04-01T20:53:38;8.40;87.00
48994;DHT22;34804;49.214;12.276;2023-04-01T20:59:28;8.40;87.80
48994;DHT22;34804;49.214;12.276;2023-04-01T21:07:54;8.40;87.80
48994;DHT22;34804;49.214;12.276;2023-04-01T21:10:29;8.40;87.70
48994;DHT22;34804;49.214;12.276;2023-04-01T21:15:48;8.40;87.40
48994;DHT22;34804;49.214;12.276;2023-04-01T21:18:38;8.30;87.50
48994;DHT22;34804;49.214;12.276;2023-04-01T21:24:30;8.40;87.30
48994;DHT22;34804;49.214;12.276;2023-04-01T21:27:16;8.40;87.80
48994;DHT22;34804;49.214;12.276;2023-04-01T21:29:53;8.30;87.30
48994;DHT22;34804;49.214;12.276;2023-04-01T21:32:37;8.40;87.40
48994;DHT22;34804;49.214;12.276;2023-04-01T21:49:32;8.30;87.50
48994;DHT22;34804;49.214;12.276;2023-04-01T21:58:04;8.30;87.20
48994;DHT22;34804;49.214;12.276;2023-04-01T22:06:05;8.30;87.20
48994;DHT22;34804;49.214;12.276;2023-04-01T22:08:41;8.30;88.10
48994;DHT22;34804;49.214;12.276;2023-04-01T22:11:26;8.30;87.70
48994;DHT22;34804;49.214;12.276;2023-04-01T22:14:16;8.30;88.40
48994;DHT22;34804;49.214;12.276;2023-04-01T22:16:54;8.20;88.20
48994;DHT22;34804;49.214;12.276;2023-04-01T22:19:40;8.20;88.50
48994;DHT22;34804;49.214;12.276;2023-04-01T22:24:42;8.10;89.10
48994;DHT22;34804;49.214;12.276;2023-04-01T22:27:26;8.10;89.50
48994;DHT22;34804;49.214;12.276;2023-04-01T22:32:57;8.00;89.40
48994;DHT22;34804;49.214;12.276;2023-04-01T22:38:13;7.90;89.70
48994;DHT22;34804;49.214;12.276;2023-04-01T22:41:09;7.90;89.70
48994;DHT22;34804;49.214;12.276;2023-04-01T22:43:43;7.90;89.60
48994;DHT22;34804;49.214;12.276;2023-04-01T22:47:05;7.90;89.50
48994;DHT22;34804;49.214;12.276;2023-04-01T22:49:23;7.80;89.60
48994;DHT22;34804;49.214;12.276;2023-04-01T22:52:02;7.80;89.60
48994;DHT22;34804;49.214;12.276;2023-04-01T22:54:45;7.80;88.90
48994;DHT22;34804;49.214;12.276;2023-04-01T22:57:34;7.90;89.20
48994;DHT22;34804;49.214;12.276;2023-04-01T23:05:36;7.70;89.60
48994;DHT22;34804;49.214;12.276;2023-04-01T23:11:04;7.70;90.10
48994;DHT22;34804;49.214;12.276;2023-04-01T23:13:39;7.60;90.20
48994;DHT22;34804;49.214;12.276;2023-04-01T23:16:08;7.70;90.30
48994;DHT22;34804;49.214;12.276;2023-04-01T23:21:50;7.70;89.80
48994;DHT22;34804;49.214;12.276;2023-04-01T23:24:33;7.80;89.80
48994;DHT22;34804;49.214;12.276;2023-04-01T23:27:20;7.70;90.10
48994;DHT22;34804;49.214;12.276;2023-04-01T23:29:48;7.70;90.20
48994;DHT22;34804;49.214;12.276;2023-04-01T23:32:25;7.70;90.30
48994;DHT22;34804;49.214;12.276;2023-04-01T23:34:55;7.80;90.30
48994;DHT22;34804;49.214;12.276;2023-04-01T23:37:23;7.70;90.40
48994;DHT22;34804;49.214;12.276;2023-04-01T23:40:01;7.70;90.40
48994;DHT22;34804;49.214;12.276;2023-04-01T23:42:37;7.80;90.70
48994;DHT22;34804;49.214;12.276;2023-04-01T23:45:13;7.70;90.50
48994;DHT22;34804;49.214;12.276;2023-04-01T23:47:41;7.80;90.00
48994;DHT22;34804;49.214;12.276;2023-04-01T23:50:17;7.80;90.30
48994;DHT22;34804;49.214;12.276;2023-04-01T23:52:53;7.80;90.20
48994;DHT22;34804;49.214;12.276;2023-04-01T23:55:26;7.80;90.40
